createdAt,value
2023-05-20T00:01:29.320Z,1.50
2023-05-20T00:03:55.644Z,1.83
2023-05-20T00:06:21.680Z,1.60
2023-05-20T00:08:47.563Z,1.60
2023-05-20T00:11:13.530Z,1.48
2023-05-20T00:13:39.442Z,1.30
2023-05-20T00:16:05.772Z,2.10
2023-05-20T00:18:32.022Z,1.42
2023-05-20T00:20:58.199Z,2.33
2023-05-20T00:23:24.151Z,1.23
2023-05-20T00:25:50.127Z,1.48
2023-05-20T00:28:16.015Z,1.50
2023-05-20T00:30:42.085Z,2.00
2023-05-20T00:33:08.191Z,1.42
2023-05-20T00:35:34.531Z,1.50
2023-05-20T00:38:00.587Z,1.77
2023-05-20T00:40:26.524Z,1.58
2023-05-20T00:42:52.415Z,1.27
2023-05-20T00:45:18.333Z,1.52
2023-05-20T00:47:44.514Z,1.88
2023-05-20T00:50:11.067Z,1.75
2023-05-20T00:52:38.064Z,1.38
2023-05-20T00:55:04.153Z,1.90
2023-05-20T00:57:30.192Z,1.92
2023-05-20T00:59:56.386Z,2.15
2023-05-20T01:02:22.631Z,1.55
2023-05-20T01:04:49.253Z,1.63
2023-05-20T01:07:18.075Z,1.88
2023-05-20T01:09:44.209Z,1.67
2023-05-20T01:12:29.067Z,2.05
2023-05-20T01:15:07.877Z,1.60
2023-05-20T01:17:38.128Z,1.58
2023-05-20T01:20:09.073Z,1.90
2023-05-20T01:22:37.647Z,1.58
2023-05-20T01:25:04.750Z,2.05
2023-05-20T01:27:30.886Z,1.88
2023-05-20T01:29:56.918Z,1.55
2023-05-20T01:32:31.980Z,1.63
2023-05-20T01:34:59.582Z,2.03
2023-05-20T01:37:27.580Z,1.60
2023-05-20T01:39:55.993Z,1.88
2023-05-20T01:42:23.169Z,1.70
2023-05-20T01:44:49.228Z,1.63
2023-05-20T01:47:15.192Z,1.83
2023-05-20T01:49:41.197Z,2.05
2023-05-20T01:52:07.249Z,2.13
2023-05-20T01:54:33.273Z,1.85
2023-05-20T01:56:59.335Z,1.90
2023-05-20T01:59:25.209Z,2.47
2023-05-20T02:01:51.164Z,2.10
2023-05-20T02:04:18.396Z,2.15
2023-05-20T02:06:45.217Z,1.73
2023-05-20T02:09:11.521Z,2.28
2023-05-20T02:11:37.348Z,1.90
2023-05-20T02:14:03.233Z,2.00
2023-05-20T02:16:29.333Z,1.67
2023-05-20T02:18:55.313Z,1.73
2023-05-20T02:21:21.884Z,2.40
2023-05-20T02:23:47.794Z,2.08
2023-05-20T02:26:13.975Z,2.20
2023-05-20T02:28:44.197Z,2.03
2023-05-20T02:31:10.096Z,2.03
2023-05-20T02:33:36.198Z,2.10
2023-05-20T02:36:02.367Z,2.40
2023-05-20T02:38:28.445Z,2.28
2023-05-20T02:40:56.046Z,2.13
2023-05-20T02:43:21.946Z,2.60
2023-05-20T02:45:48.031Z,2.45
2023-05-20T02:48:14.053Z,2.45
2023-05-20T02:50:40.355Z,2.10
2023-05-20T02:53:06.533Z,2.58
2023-05-20T02:55:36.145Z,2.95
2023-05-20T02:58:03.187Z,2.30
2023-05-20T03:00:30.691Z,2.50
2023-05-20T03:02:58.415Z,2.38
2023-05-20T03:05:24.350Z,3.15
2023-05-20T03:07:50.456Z,2.50
2023-05-20T03:10:16.500Z,2.83
2023-05-20T03:12:42.682Z,2.33
2023-05-20T03:15:09.126Z,2.83
2023-05-20T03:17:35.098Z,2.22
2023-05-20T03:20:01.542Z,2.53
2023-05-20T03:22:27.409Z,2.42
2023-05-20T03:24:53.262Z,2.60
2023-05-20T03:27:19.126Z,2.88
2023-05-20T03:29:45.000Z,3.03
2023-05-20T03:32:11.042Z,2.50
2023-05-20T03:34:37.592Z,2.78
2023-05-20T03:37:03.511Z,2.75
2023-05-20T03:39:29.419Z,2.72
2023-05-20T03:41:55.517Z,2.70
2023-05-20T03:44:21.509Z,2.55
2023-05-20T03:46:47.417Z,3.13
2023-05-20T03:49:13.407Z,3.15
2023-05-20T03:51:40.412Z,2.80
2023-05-20T03:54:06.428Z,2.83
2023-05-20T03:56:32.442Z,2.40
2023-05-20T03:58:58.731Z,2.83
2023-05-20T04:01:25.142Z,2.75
2023-05-20T04:03:51.425Z,2.65
2023-05-20T04:06:17.443Z,2.60
2023-05-20T04:08:43.447Z,2.50
2023-05-20T04:11:09.406Z,2.85
2023-05-20T04:13:35.526Z,2.72
2023-05-20T04:16:02.253Z,2.90
2023-05-20T04:18:31.157Z,2.70
2023-05-20T04:20:57.477Z,3.35
2023-05-20T04:23:24.135Z,2.75
2023-05-20T04:25:50.081Z,2.78
2023-05-20T04:28:15.983Z,3.28
2023-05-20T04:30:44.362Z,3.28
2023-05-20T04:33:11.371Z,2.72
2023-05-20T04:35:40.865Z,2.70
2023-05-20T04:38:07.828Z,2.30
2023-05-20T04:40:33.952Z,3.10
2023-05-20T04:43:00.172Z,2.95
2023-05-20T04:45:26.152Z,2.47
2023-05-20T04:47:52.688Z,2.65
2023-05-20T04:50:19.030Z,2.50
2023-05-20T04:52:45.449Z,2.75
2023-05-20T04:55:12.979Z,2.80
2023-05-20T04:57:42.914Z,2.92
2023-05-20T05:00:12.764Z,2.90
2023-05-20T05:02:39.091Z,2.95
2023-05-20T05:05:05.496Z,2.55
2023-05-20T05:07:31.561Z,2.60
2023-05-20T05:09:57.461Z,2.78
2023-05-20T05:12:23.352Z,2.67
2023-05-20T05:14:49.262Z,2.90
2023-05-20T05:17:15.141Z,3.30
2023-05-20T05:19:41.060Z,2.38
2023-05-20T05:22:06.992Z,2.30
2023-05-20T05:24:33.131Z,2.08
2023-05-20T05:26:59.018Z,2.30
2023-05-20T05:29:25.010Z,2.88
2023-05-20T05:31:50.913Z,2.40
2023-05-20T05:34:16.795Z,2.50
2023-05-20T05:36:42.695Z,2.40
2023-05-20T05:39:08.794Z,2.75
2023-05-20T05:41:35.001Z,2.67
2023-05-20T05:44:01.213Z,2.60
2023-05-20T05:46:27.209Z,2.75
2023-05-20T05:48:53.211Z,2.78
2023-05-20T05:51:19.095Z,2.78
2023-05-20T05:53:45.061Z,3.00
2023-05-20T05:56:11.179Z,3.28
2023-05-20T05:58:37.950Z,2.70
2023-05-20T06:01:04.144Z,2.67
2023-05-20T06:03:30.644Z,2.90
2023-05-20T06:05:56.810Z,2.58
2023-05-20T06:08:22.729Z,3.45
2023-05-20T06:10:49.607Z,3.00
2023-05-20T06:13:16.314Z,2.63
2023-05-20T06:15:42.600Z,3.35
2023-05-20T06:18:08.476Z,3.05
2023-05-20T06:20:34.365Z,3.40
2023-05-20T06:23:00.370Z,3.60
2023-05-20T06:25:27.038Z,3.22
2023-05-20T06:27:53.064Z,3.65
2023-05-20T06:30:19.440Z,3.17
2023-05-20T06:32:45.940Z,3.25
2023-05-20T06:35:11.890Z,3.35
2023-05-20T06:37:37.940Z,3.28
2023-05-20T06:40:04.507Z,3.50
2023-05-20T06:42:30.385Z,3.55
2023-05-20T06:44:56.393Z,3.45
2023-05-20T06:47:22.445Z,3.90
2023-05-20T06:49:48.410Z,3.60
2023-05-20T06:52:14.526Z,3.67
2023-05-20T06:54:40.997Z,3.45
2023-05-20T06:57:08.174Z,3.50
2023-05-20T06:59:36.945Z,4.03
2023-05-20T07:02:03.490Z,3.65
2023-05-20T07:04:29.769Z,3.55
2023-05-20T07:06:55.815Z,4.00
2023-05-20T07:09:21.930Z,3.60
2023-05-20T07:11:47.853Z,3.72
2023-05-20T07:14:13.793Z,3.88
2023-05-20T07:16:40.640Z,3.70
2023-05-20T07:19:06.689Z,3.60
2023-05-20T07:21:32.893Z,3.80
2023-05-20T07:23:58.814Z,3.83
2023-05-20T07:26:24.748Z,3.63
2023-05-20T07:28:51.417Z,3.53
2023-05-20T07:31:17.439Z,3.83
2023-05-20T07:33:43.473Z,3.20
2023-05-20T07:36:11.240Z,3.67
2023-05-20T07:38:38.466Z,3.05
2023-05-20T07:41:06.318Z,3.58
2023-05-20T07:43:32.240Z,3.38
2023-05-20T07:45:58.460Z,3.55
2023-05-20T07:48:27.128Z,3.35
2023-05-20T07:50:53.096Z,3.40
2023-05-20T07:53:19.382Z,3.40
2023-05-20T07:55:45.325Z,3.50
2023-05-20T07:58:11.254Z,4.00
2023-05-20T08:00:37.185Z,3.58
2023-05-20T08:03:03.320Z,3.58
2023-05-20T08:05:29.309Z,3.22
2023-05-20T08:07:55.806Z,3.58
2023-05-20T08:10:21.668Z,3.25
2023-05-20T08:12:47.528Z,3.45
2023-05-20T08:15:13.453Z,3.33
2023-05-20T08:17:39.390Z,3.63
2023-05-20T08:20:07.464Z,3.70
2023-05-20T08:22:33.342Z,3.17
2023-05-20T08:24:59.262Z,3.67
2023-05-20T08:27:25.547Z,3.38
2023-05-20T08:29:51.411Z,3.53
2023-05-20T08:32:17.388Z,3.78
2023-05-20T08:34:43.315Z,3.28
2023-05-20T08:37:09.206Z,3.30
2023-05-20T08:39:35.159Z,3.45
2023-05-20T08:42:02.438Z,3.83
2023-05-20T08:44:29.421Z,3.78
2023-05-20T08:46:56.481Z,4.07
2023-05-20T08:49:22.637Z,3.72
2023-05-20T08:51:48.741Z,3.97
2023-05-20T08:54:16.233Z,3.72
2023-05-20T08:56:43.225Z,3.90
2023-05-20T08:59:09.570Z,3.85
2023-05-20T09:01:45.113Z,4.00
2023-05-20T09:04:11.243Z,4.32
2023-05-20T09:06:44.873Z,3.22
2023-05-20T09:09:14.265Z,4.35
2023-05-20T09:11:40.997Z,3.92
2023-05-20T09:14:07.508Z,3.95
2023-05-20T09:16:34.301Z,4.07
2023-05-20T09:19:00.560Z,3.97
2023-05-20T09:21:27.707Z,4.00
2023-05-20T09:23:56.665Z,4.28
2023-05-20T09:26:24.191Z,4.78
2023-05-20T09:28:50.877Z,3.80
2023-05-20T09:31:16.802Z,4.63
2023-05-20T09:33:43.235Z,4.47
2023-05-20T09:36:10.091Z,4.70
2023-05-20T09:38:40.894Z,4.55
2023-05-20T09:41:11.410Z,4.93
2023-05-20T09:43:39.569Z,4.63
2023-05-20T09:46:06.546Z,4.30
2023-05-20T09:48:34.086Z,4.75
2023-05-20T09:51:02.036Z,3.70
2023-05-20T09:53:28.169Z,4.70
2023-05-20T09:55:54.476Z,4.85
2023-05-20T09:58:21.881Z,3.75
2023-05-20T10:00:47.855Z,4.53
2023-05-20T10:03:14.350Z,4.63
2023-05-20T10:05:46.901Z,4.25
2023-05-20T10:08:34.678Z,4.40
2023-05-20T10:11:25.138Z,4.78
2023-05-20T10:14:25.014Z,4.68
2023-05-20T10:17:07.281Z,4.25
2023-05-20T10:19:34.384Z,4.43
2023-05-20T10:22:08.054Z,4.15
2023-05-20T10:24:43.769Z,5.32
2023-05-20T10:27:16.336Z,4.63
2023-05-20T10:32:28.460Z,4.35
2023-05-20T10:35:04.540Z,4.57
2023-05-20T10:37:33.208Z,4.68
2023-05-20T10:40:06.437Z,4.57
2023-05-20T10:42:32.482Z,4.60
2023-05-20T10:44:58.378Z,4.32
2023-05-20T10:47:26.292Z,4.63
2023-05-20T10:49:52.536Z,5.18
2023-05-20T10:52:19.544Z,5.03
2023-05-20T10:54:58.834Z,4.72
2023-05-20T10:57:28.948Z,5.13
2023-05-20T10:59:55.743Z,4.55
2023-05-20T11:02:28.325Z,4.95
2023-05-20T11:04:58.034Z,4.40
2023-05-20T11:07:28.581Z,4.53
2023-05-20T11:09:55.715Z,4.18
2023-05-20T11:12:25.812Z,4.35
2023-05-20T11:14:52.133Z,4.15
2023-05-20T11:17:19.577Z,4.72
2023-05-20T11:19:46.565Z,4.10
2023-05-20T11:22:13.080Z,4.32
2023-05-20T11:24:39.012Z,4.40
2023-05-20T11:27:06.277Z,4.25
2023-05-20T11:29:32.704Z,3.78
2023-05-20T11:31:59.572Z,3.92
2023-05-20T11:34:26.896Z,4.50
2023-05-20T11:36:59.311Z,5.43
2023-05-20T11:39:28.943Z,6.10
2023-05-20T11:41:55.073Z,5.78
2023-05-20T11:44:21.157Z,4.68
2023-05-20T11:46:48.072Z,4.65
2023-05-20T11:49:15.042Z,4.70
2023-05-20T11:51:43.036Z,5.25
2023-05-20T11:54:09.930Z,4.75
2023-05-20T11:56:37.360Z,6.40
2023-05-20T11:59:05.372Z,4.88
2023-05-20T12:01:40.498Z,4.80
2023-05-20T12:04:07.563Z,3.92
2023-05-20T12:06:36.434Z,4.60
2023-05-20T12:09:06.981Z,4.90
2023-05-20T12:11:35.125Z,4.43
2023-05-20T12:14:02.058Z,3.80
2023-05-20T12:16:28.590Z,4.35
2023-05-20T12:18:54.938Z,4.30
2023-05-20T12:21:20.967Z,3.38
2023-05-20T12:23:46.854Z,3.30
2023-05-20T12:26:12.854Z,3.40
2023-05-20T12:28:39.653Z,3.80
2023-05-20T12:31:05.819Z,3.40
2023-05-20T12:33:31.676Z,3.58
2023-05-20T12:35:57.769Z,3.13
2023-05-20T12:38:24.010Z,3.42
2023-05-20T12:40:50.054Z,3.03
2023-05-20T12:43:15.930Z,3.30
2023-05-20T12:45:43.504Z,2.85
2023-05-20T12:48:09.642Z,3.83
2023-05-20T12:50:35.864Z,3.47
2023-05-20T12:53:02.046Z,2.92
2023-05-20T12:55:28.037Z,3.53
2023-05-20T12:57:55.422Z,3.28
2023-05-20T13:00:21.549Z,3.33
2023-05-20T13:02:47.851Z,3.58
2023-05-20T13:05:14.418Z,3.22
2023-05-20T13:07:40.450Z,3.13
2023-05-20T13:10:07.603Z,3.53
2023-05-20T13:12:34.788Z,3.22
2023-05-20T13:15:00.676Z,2.90
2023-05-20T13:17:27.069Z,2.65
2023-05-20T13:19:54.083Z,2.67
2023-05-20T13:22:20.373Z,3.10
2023-05-20T13:24:46.253Z,3.05
2023-05-20T13:27:12.187Z,3.05
2023-05-20T13:29:38.136Z,3.17
2023-05-20T13:32:04.361Z,2.92
2023-05-20T13:34:30.948Z,3.35
2023-05-20T13:36:56.865Z,2.80
2023-05-20T13:39:22.968Z,3.05
2023-05-20T13:41:48.980Z,3.25
2023-05-20T13:44:15.040Z,3.20
2023-05-20T13:46:41.108Z,3.22
2023-05-20T13:49:07.129Z,3.00
2023-05-20T13:51:33.071Z,2.83
2023-05-20T13:53:59.034Z,3.38
2023-05-20T13:56:24.943Z,3.47
2023-05-20T13:58:50.823Z,2.97
2023-05-20T14:01:17.318Z,2.85
2023-05-20T14:03:43.441Z,3.25
2023-05-20T14:06:09.911Z,3.78
2023-05-20T14:08:35.771Z,3.35
2023-05-20T14:11:01.730Z,3.47
2023-05-20T14:13:27.681Z,3.10
2023-05-20T14:15:56.480Z,3.50
2023-05-20T14:18:22.729Z,3.78
2023-05-20T14:20:48.782Z,3.33
2023-05-20T14:23:14.859Z,3.53
2023-05-20T14:25:40.986Z,3.42
2023-05-20T14:28:06.890Z,3.75
2023-05-20T14:30:33.586Z,3.65
2023-05-20T14:33:00.119Z,3.50
2023-05-20T14:35:26.254Z,4.18
2023-05-20T14:37:52.224Z,3.55
2023-05-20T14:40:18.519Z,4.05
2023-05-20T14:42:44.631Z,3.17
2023-05-20T14:45:10.626Z,3.88
2023-05-20T14:47:39.417Z,4.05
2023-05-20T14:50:08.480Z,4.20
2023-05-20T14:52:38.539Z,4.60
2023-05-20T14:55:05.386Z,4.45
2023-05-20T14:57:32.640Z,4.63
2023-05-20T14:59:58.460Z,4.07
2023-05-20T15:02:24.562Z,3.85
2023-05-20T15:04:50.630Z,3.50
2023-05-20T15:07:16.635Z,3.63
2023-05-20T15:09:43.202Z,3.70
2023-05-20T15:12:10.549Z,4.03
2023-05-20T15:14:36.551Z,4.10
2023-05-20T15:17:03.898Z,3.95
2023-05-20T15:19:31.963Z,4.32
2023-05-20T15:21:58.710Z,3.40
2023-05-20T15:24:24.852Z,3.85
2023-05-20T15:26:51.937Z,3.70
2023-05-20T15:29:17.845Z,3.80
2023-05-20T15:31:43.868Z,5.15
2023-05-20T15:34:09.901Z,4.28
2023-05-20T15:36:36.009Z,3.83
2023-05-20T15:39:01.932Z,4.13
2023-05-20T15:41:27.858Z,4.07
2023-05-20T15:43:53.955Z,4.30
2023-05-20T15:46:20.228Z,4.50
2023-05-20T15:48:46.229Z,4.07
2023-05-20T15:51:13.855Z,4.38
2023-05-20T15:53:40.760Z,3.85
2023-05-20T15:56:07.444Z,4.65
2023-05-20T15:58:33.311Z,3.63
2023-05-20T16:00:59.258Z,3.60
2023-05-20T16:03:25.227Z,4.13
2023-05-20T16:05:51.375Z,3.60
2023-05-20T16:08:17.472Z,3.58
2023-05-20T16:10:43.369Z,3.78
2023-05-20T16:13:09.255Z,3.70
2023-05-20T16:15:37.263Z,3.33
2023-05-20T16:18:04.135Z,4.45
2023-05-20T16:20:30.095Z,4.18
2023-05-20T16:22:56.102Z,4.57
2023-05-20T16:25:22.063Z,4.30
2023-05-20T16:27:47.964Z,3.90
2023-05-20T16:30:13.969Z,4.28
2023-05-20T16:32:40.261Z,4.45
2023-05-20T16:35:06.961Z,4.28
2023-05-20T16:37:33.767Z,4.00
2023-05-20T16:40:00.028Z,4.68
2023-05-20T16:42:25.919Z,3.97
2023-05-20T16:44:51.893Z,4.40
2023-05-20T16:47:17.784Z,4.70
2023-05-20T16:49:43.634Z,4.65
2023-05-20T16:52:09.634Z,4.30
2023-05-20T16:54:35.642Z,4.28
2023-05-20T16:57:03.097Z,4.03
2023-05-20T16:59:30.000Z,4.28
2023-05-20T17:01:56.429Z,4.00
2023-05-20T17:04:23.124Z,4.13
2023-05-20T17:06:49.725Z,4.50
2023-05-20T17:09:16.071Z,4.30
2023-05-20T17:11:42.330Z,4.15
2023-05-20T17:14:08.310Z,4.18
2023-05-20T17:16:34.241Z,4.55
2023-05-20T17:19:00.196Z,4.28
2023-05-20T17:21:26.528Z,4.78
2023-05-20T17:23:52.430Z,4.95
2023-05-20T17:26:18.376Z,4.65
2023-05-20T17:28:44.275Z,4.80
2023-05-20T17:31:10.769Z,4.75
2023-05-20T17:33:36.740Z,5.28
2023-05-20T17:36:02.946Z,5.85
2023-05-20T17:38:28.824Z,5.45
2023-05-20T17:40:54.892Z,5.80
2023-05-20T17:43:21.419Z,5.30
2023-05-20T17:45:47.919Z,5.93
2023-05-20T17:48:14.322Z,6.47
2023-05-20T17:50:40.959Z,5.80
2023-05-20T17:53:07.030Z,6.50
2023-05-20T17:55:35.628Z,6.88
2023-05-20T17:58:06.527Z,5.88
2023-05-20T18:00:33.870Z,6.40
2023-05-20T18:03:00.274Z,6.40
2023-05-20T18:05:26.889Z,5.97
2023-05-20T18:07:52.839Z,5.97
2023-05-20T18:10:19.152Z,5.82
2023-05-20T18:12:45.007Z,5.80
2023-05-20T18:15:16.325Z,5.80
2023-05-20T18:17:42.423Z,6.38
2023-05-20T18:20:11.867Z,6.03
2023-05-20T18:22:44.218Z,6.90
2023-05-20T18:25:16.492Z,8.35
2023-05-20T18:27:42.726Z,6.22
2023-05-20T18:30:09.441Z,6.65
2023-05-20T18:32:35.754Z,5.93
2023-05-20T18:35:02.064Z,5.55
2023-05-20T18:37:28.161Z,5.30
2023-05-20T18:39:56.416Z,5.82
2023-05-20T18:42:22.378Z,6.60
2023-05-20T18:44:48.374Z,5.88
2023-05-20T18:47:16.195Z,5.97
2023-05-20T18:49:42.531Z,6.03
2023-05-20T18:52:08.692Z,6.80
2023-05-20T18:54:34.797Z,7.05
2023-05-20T18:57:04.269Z,6.70
2023-05-20T18:59:31.370Z,6.65
2023-05-20T19:01:57.961Z,6.80
2023-05-20T19:04:24.928Z,6.85
2023-05-20T19:06:52.321Z,8.05
2023-05-20T19:09:21.231Z,6.82
2023-05-20T19:11:47.174Z,7.15
2023-05-20T19:14:13.842Z,7.53
2023-05-20T19:16:41.073Z,7.38
2023-05-20T19:19:07.043Z,8.05
2023-05-20T19:21:33.077Z,8.43
2023-05-20T19:23:58.994Z,8.57
2023-05-20T19:26:25.944Z,8.30
2023-05-20T19:28:52.061Z,8.48
2023-05-20T19:31:20.350Z,8.40
2023-05-20T19:33:48.429Z,8.43
2023-05-20T19:36:15.218Z,8.60
2023-05-20T19:38:41.530Z,8.75
2023-05-20T19:41:09.931Z,8.73
2023-05-20T19:43:36.069Z,8.25
2023-05-20T19:46:02.129Z,8.90
2023-05-20T19:48:28.117Z,7.85
2023-05-20T19:50:54.119Z,8.73
2023-05-20T19:53:20.544Z,8.85
2023-05-20T19:55:47.022Z,9.10
2023-05-20T19:58:13.237Z,9.52
2023-05-20T20:00:39.231Z,9.75
2023-05-20T20:03:06.723Z,9.18
2023-05-20T20:05:33.327Z,8.88
2023-05-20T20:07:59.514Z,10.30
2023-05-20T20:10:25.672Z,9.32
2023-05-20T20:12:51.725Z,8.88
2023-05-20T20:15:19.706Z,9.95
2023-05-20T20:17:51.087Z,9.32
2023-05-20T20:20:17.987Z,9.73
2023-05-20T20:22:44.096Z,10.02
2023-05-20T20:25:13.147Z,10.07
2023-05-20T20:27:45.852Z,10.63
2023-05-20T20:30:13.166Z,9.82
2023-05-20T20:32:40.420Z,10.50
2023-05-20T20:35:07.291Z,10.23
2023-05-20T20:37:34.716Z,10.95
2023-05-20T20:40:12.254Z,10.38
2023-05-20T20:42:44.221Z,9.40
2023-05-20T20:45:14.543Z,10.68
2023-05-20T20:47:43.036Z,11.20
2023-05-20T20:50:11.097Z,11.20
2023-05-20T20:52:42.106Z,11.32
2023-05-20T20:55:11.990Z,10.90
2023-05-20T20:57:38.556Z,11.35
2023-05-20T21:00:20.620Z,11.38
2023-05-20T21:02:47.514Z,11.25
2023-05-20T21:05:16.948Z,11.50
2023-05-20T21:07:45.887Z,11.82
2023-05-20T21:10:12.362Z,11.60
2023-05-20T21:12:38.423Z,11.82
2023-05-20T21:15:04.994Z,11.07
2023-05-20T21:17:30.883Z,11.45
2023-05-20T21:19:56.783Z,12.25
2023-05-20T21:22:22.691Z,12.05
2023-05-20T21:24:48.605Z,12.98
2023-05-20T21:27:16.267Z,12.35
2023-05-20T21:29:42.437Z,13.30
2023-05-20T21:32:08.395Z,12.80
2023-05-20T21:34:34.386Z,13.15
2023-05-20T21:37:00.308Z,12.85
2023-05-20T21:39:26.283Z,12.77
2023-05-20T21:41:52.176Z,12.52
2023-05-20T21:44:18.141Z,12.68
2023-05-20T21:46:44.332Z,14.48
2023-05-20T21:49:10.313Z,12.32
2023-05-20T21:51:36.232Z,13.50
2023-05-20T21:54:02.131Z,13.10
2023-05-20T21:56:28.153Z,13.45
2023-05-20T21:58:54.141Z,13.57
2023-05-20T22:01:20.500Z,12.95
2023-05-20T22:03:49.575Z,14.02
2023-05-20T22:06:17.108Z,13.80
2023-05-20T22:08:43.175Z,13.13
2023-05-20T22:11:09.077Z,13.55
2023-05-20T22:13:35.420Z,14.40
2023-05-20T22:16:03.968Z,12.18
2023-05-20T22:18:30.383Z,14.50
2023-05-20T22:21:00.328Z,14.68
2023-05-20T22:23:27.208Z,13.73
2023-05-20T22:25:54.309Z,13.93
2023-05-20T22:28:20.648Z,12.75
2023-05-20T22:30:46.869Z,12.63
2023-05-20T22:33:12.811Z,13.50
2023-05-20T22:35:38.707Z,13.05
2023-05-20T22:38:04.792Z,13.85
2023-05-20T22:40:30.751Z,13.80
2023-05-20T22:42:56.702Z,14.00
2023-05-20T22:45:22.584Z,13.38
2023-05-20T22:47:48.491Z,13.98
2023-05-20T22:50:14.449Z,13.25
2023-05-20T22:52:40.848Z,14.00
2023-05-20T22:55:07.338Z,13.35
2023-05-20T22:57:33.225Z,13.73
2023-05-20T22:59:59.332Z,14.02
2023-05-20T23:02:25.429Z,13.07
2023-05-20T23:04:51.746Z,13.30
2023-05-20T23:07:18.801Z,13.25
2023-05-20T23:09:49.611Z,13.30
2023-05-20T23:12:15.726Z,13.63
2023-05-20T23:14:41.622Z,13.23
2023-05-20T23:17:07.552Z,12.43
2023-05-20T23:19:33.641Z,13.55
2023-05-20T23:21:59.654Z,12.93
2023-05-20T23:24:25.946Z,13.80
2023-05-20T23:26:53.191Z,12.23
2023-05-20T23:29:20.784Z,12.27
2023-05-20T23:31:48.795Z,12.27
2023-05-20T23:34:16.599Z,12.88
2023-05-20T23:36:42.528Z,12.30
2023-05-20T23:39:08.621Z,12.18
2023-05-20T23:41:34.930Z,12.68
2023-05-20T23:44:01.804Z,12.25
2023-05-20T23:46:28.091Z,12.68
2023-05-20T23:48:54.011Z,12.25
2023-05-20T23:51:22.969Z,12.70
2023-05-20T23:53:48.925Z,12.18
2023-05-20T23:56:15.237Z,13.10
2023-05-20T23:58:41.081Z,12.82
